Emerald 1 — JI3670 — position and weather

sailwx.info

Track history (hours):
 
Tides and Currents Weather Stations Pressure Air Temp Water Temp Dewpoint Dewpoint Depression Visibility Wind Speed Wind Dir Waves Ship Positions

Emerald 1

Last reported at 2018-Feb-20 17:00 UTC. Time now 2018-Feb-20 17:09 UTC.
Position N 34°30' E 134°40'.

Length 118 m; draft 4.2 m.

Type: Other ship. MMSI: 431301484.

Date/timePositionNaut miles runAvg speedWind from/ knotsBaromVisibWave heightAir tempDewpointWater temp
2018-Feb-20 17:00N 34°30' E 134°40'4 7.4
2018-Feb-20 16:30N 34°28' E 134°35'4 7.4
2018-Feb-20 16:01N 34°27' E 134°31'4 7.4
2018-Feb-20 15:30N 34°26' E 134°27'4 7.2
2018-Feb-20 15:01N 34°24' E 134°23'4 7.0
2018-Feb-20 14:30N 34°24' E 134°19'3 6.6
2018-Feb-20 14:00N 34°24' E 134°15'3 6.2
2018-Feb-20 13:30N 34°25' E 134°11'3 6.0
2018-Feb-20 12:59N 34°26' E 134°08'9 5.9
2018-Feb-20 11:31N 34°26' E 133°57'0 9.2
2018-Feb-20 11:30N 34°26' E 133°57'48 2.5
2018-Feb-19 16:37N 34°18' E 132°60'16 8.1
2018-Feb-19 14:38N 34°07' E 132°46'1 8.4
2018-Feb-19 14:29N 34°07' E 132°44'4 8.6
2018-Feb-19 14:00N 34°05' E 132°40'4 8.5
2018-Feb-19 13:30N 34°03' E 132°35'4 8.2
2018-Feb-19 13:00N 34°02' E 132°30'3 6.9
2018-Feb-19 12:30N 34°03' E 132°26'4 7.3
2018-Feb-19 11:59N 34°06' E 132°24'4 7.2
2018-Feb-19 11:30N 34°09' E 132°22'4 7.5
2018-Feb-19 11:00N 34°13' E 132°21'4 7.5
2018-Feb-19 10:30N 34°17' E 132°21'4 7.1
2018-Feb-19 10:00N 34°19' E 132°24'3 5.0
2018-Feb-19 09:30N 34°21' E 132°26'0 0.0
2018-Feb-19 08:59N 34°21' E 132°26'0 0.0
2018-Feb-19 08:23N 34°21' E 132°26'0 0.0
2018-Feb-19 07:59N 34°21' E 132°26'1 1.5
2018-Feb-19 07:30N 34°20' E 132°26'0 0.0
2018-Feb-19 07:00N 34°20' E 132°26'0 0.0
2018-Feb-19 06:30N 34°20' E 132°26'0 0.1
2018-Feb-19 06:00N 34°20' E 132°26'0 0.0
2018-Feb-19 05:30N 34°20' E 132°26'1 2.1
2018-Feb-19 05:00N 34°19' E 132°25'4 7.3
2018-Feb-19 04:30N 34°16' E 132°23'3 6.6
2018-Feb-19 04:00N 34°13' E 132°21'4 7.7
2018-Feb-19 03:30N 34°10' E 132°22'4 8.0
2018-Feb-19 03:00N 34°06' E 132°24'4 8.1
2018-Feb-19 02:27N 34°02' E 132°28'4 7.5
2018-Feb-19 01:56N 34°02' E 132°32'3 7.1
2018-Feb-19 01:29N 34°04' E 132°36'3 7.0
2018-Feb-19 01:00N 34°05' E 132°40'21 6.8
2018-Feb-18 21:57N 34°18' E 132°59'54 7.2
2018-Feb-18 14:31N 34°27' E 134°04'13 8.5
2018-Feb-18 13:01N 34°25' E 134°19'1 8.7
2018-Feb-18 12:53N 34°25' E 134°20'3 8.5
2018-Feb-18 12:30N 34°26' E 134°24'4 8.3
2018-Feb-18 12:00N 34°28' E 134°28'4 8.2
2018-Feb-18 11:30N 34°29' E 134°33'4 8.2
2018-Feb-18 11:00N 34°31' E 134°38'4 8.0
2018-Feb-18 10:30N 34°32' E 134°42'4 7.7
2018-Feb-18 10:00N 34°34' E 134°47'4 7.4
2018-Feb-18 09:30N 34°35' E 134°51'4 7.3
2018-Feb-18 09:00N 34°36' E 134°55'3 6.8
2018-Feb-18 08:30N 34°38' E 134°59'3 5.4
2018-Feb-18 08:00N 34°37' E 135°02'2 4.4
2018-Feb-18 07:30N 34°36' E 135°04'4 7.0
2018-Feb-18 07:00N 34°37' E 135°09'4 7.7
2018-Feb-18 06:30N 34°37' E 135°13'3 5.2
2018-Feb-18 06:00N 34°40' E 135°15'0 0.9
2018-Feb-18 05:30N 34°40' E 135°14'0 0.0
2018-Feb-18 05:00N 34°40' E 135°14'0 0.0
2018-Feb-18 04:30N 34°40' E 135°14'0 0.0
2018-Feb-18 04:00N 34°40' E 135°14'0 0.0
2018-Feb-18 03:30N 34°40' E 135°14'0 0.0
2018-Feb-18 03:00N 34°40' E 135°14'0 0.0
2018-Feb-18 02:30N 34°40' E 135°14'0 0.0
2018-Feb-18 02:00N 34°40' E 135°14'0 0.0
2018-Feb-18 01:30N 34°40' E 135°14'0 0.0
2018-Feb-18 01:00N 34°40' E 135°14'0 0.0
2018-Feb-18 00:30N 34°40' E 135°14'0 0.0
2018-Feb-18 00:00N 34°40' E 135°14'0 0.0
2018-Feb-17 23:30N 34°40' E 135°14'0 0.0
2018-Feb-17 23:00N 34°40' E 135°14'0 0.0
2018-Feb-17 22:30N 34°40' E 135°14'0 0.0
2018-Feb-17 22:00N 34°40' E 135°14'0 0.0
2018-Feb-17 21:30N 34°40' E 135°14'0 0.0
2018-Feb-17 21:00N 34°40' E 135°14'0 0.0
2018-Feb-17 20:30N 34°40' E 135°14'0 0.0
2018-Feb-17 20:00N 34°40' E 135°14'0 0.0
2018-Feb-17 19:30N 34°40' E 135°14'0 0.1
2018-Feb-17 19:00N 34°40' E 135°14'0 0.1
2018-Feb-17 18:30N 34°40' E 135°14'0 0.0
2018-Feb-17 18:00N 34°40' E 135°14'0 0.0
2018-Feb-17 17:30N 34°40' E 135°14'0 0.4
2018-Feb-17 17:01N 34°40' E 135°14'0 0.8
2018-Feb-17 16:30N 34°40' E 135°14'1 2.0
2018-Feb-17 16:00N 34°40' E 135°15'1 2.0
2018-Feb-17 15:29N 34°41' E 135°15'0 0.0
2018-Feb-17 14:59N 34°41' E 135°15'0 0.0
2018-Feb-17 14:26N 34°41' E 135°15'0 0.0
2018-Feb-17 13:59N 34°41' E 135°15'0 0.3
2018-Feb-17 13:30N 34°41' E 135°15'3 6.6
2018-Feb-17 13:00N 34°38' E 135°14'4 7.7
2018-Feb-17 12:30N 34°36' E 135°10'4 8.5
2018-Feb-17 12:01N 34°35' E 135°05'3 6.3
2018-Feb-17 11:30N 34°37' E 135°02'2 4.7
2018-Feb-17 11:00N 34°37' E 134°59'3 7.0
2018-Feb-17 10:30N 34°35' E 134°55'4 7.3
2018-Feb-17 10:00N 34°34' E 134°51'4 7.6
2018-Feb-17 09:30N 34°32' E 134°47'4 7.6
2018-Feb-17 09:00N 34°30' E 134°43'4 7.6
2018-Feb-17 08:30N 34°29' E 134°38'4 7.6
2018-Feb-17 08:00N 34°28' E 134°34'4 7.5
2018-Feb-17 07:30N 34°27' E 134°30'4 7.5
2018-Feb-17 07:00N 34°25' E 134°26'4 7.9
2018-Feb-17 06:27N 34°24' E 134°20'5 9.2
2018-Feb-17 05:57N 34°24' E 134°15'5 9.9
2018-Feb-17 05:29N 34°25' E 134°10'70 8.0
2018-Feb-16 20:45N 34°06' E 132°48'2 7.2
2018-Feb-16 20:29N 34°05' E 132°46'4 7.5
2018-Feb-16 20:00N 34°03' E 132°42'4 7.6
2018-Feb-16 19:30N 34°01' E 132°38'4 7.2
2018-Feb-16 19:00N 33°59' E 132°35'3 5.2
2018-Feb-16 18:23N 33°57' E 132°32'2 5.8
2018-Feb-16 18:00N 33°56' E 132°30'3 6.3
2018-Feb-16 17:30N 33°53' E 132°28'4 6.5
2018-Feb-16 16:49N 33°51' E 132°23'2 5.8
2018-Feb-16 16:29N 33°50' E 132°21'6 7.4
2018-Feb-16 15:40N 33°50' E 132°14'1 7.5
2018-Feb-16 15:30N 33°50' E 132°12'4 7.2
2018-Feb-16 15:00N 33°48' E 132°09'4 7.6
2018-Feb-16 14:29N 33°46' E 132°04'4 7.5
2018-Feb-16 13:55N 33°48' E 131°60'3 8.2
2018-Feb-16 13:30N 33°50' E 131°56'6 8.1
2018-Feb-16 12:47N 33°54' E 131°51'5 7.9
2018-Feb-16 12:13N 33°57' E 131°47'2 7.7
2018-Feb-16 11:58N 33°58' E 131°45'3 6.7
2018-Feb-16 11:30N 34°01' E 131°46'1 2.8
2018-Feb-16 11:00N 34°02' E 131°47'0 0.0
2018-Feb-16 10:29N 34°02' E 131°47'0 0.0
2018-Feb-16 09:59N 34°02' E 131°47'1 2.8
2018-Feb-16 09:30N 34°02' E 131°46'1 1.9
2018-Feb-16 09:00N 34°01' E 131°45'0 0.0
2018-Feb-16 08:30N 34°01' E 131°45'0 0.0
2018-Feb-16 08:00N 34°01' E 131°45'0 0.0
2018-Feb-16 07:30N 34°01' E 131°45'0 0.0
2018-Feb-16 06:48N 34°01' E 131°45'0 0.0
2018-Feb-16 06:24N 34°01' E 131°45'0 0.0
2018-Feb-16 06:00N 34°01' E 131°45'0 0.1
2018-Feb-16 04:48N 34°01' E 131°45'0 0.1
2018-Feb-16 04:24N 34°01' E 131°45'0 0.1
2018-Feb-16 03:54N 34°01' E 131°45'0 0.0
2018-Feb-16 03:30N 34°01' E 131°45'0 0.0
2018-Feb-16 02:54N 34°01' E 131°45'0 0.0
2018-Feb-16 02:30N 34°01' E 131°45'0 0.0
2018-Feb-16 02:00N 34°01' E 131°45'0 0.0
2018-Feb-16 01:30N 34°01' E 131°45'0 0.0
2018-Feb-16 01:00N 34°01' E 131°45'0 0.0
2018-Feb-16 00:24N 34°01' E 131°45'0 0.0
2018-Feb-16 00:00N 34°01' E 131°45'0 0.0
2018-Feb-15 22:54N 34°01' E 131°45'0 0.0
2018-Feb-15 22:30N 34°01' E 131°45'0 0.0
2018-Feb-15 22:00N 34°01' E 131°45'0 0.1
2018-Feb-15 21:06N 34°01' E 131°45'0 0.1
2018-Feb-15 20:39N 34°01' E 131°45'0 0.0
2018-Feb-15 20:24N 34°01' E 131°45'0 0.0
2018-Feb-15 20:00N 34°01' E 131°45'0 0.1
2018-Feb-15 19:27N 34°01' E 131°45'0 0.0
2018-Feb-15 19:00N 34°01' E 131°45'0 0.0
2018-Feb-15 18:24N 34°01' E 131°45'0 0.0
2018-Feb-15 17:54N 34°01' E 131°45'0 0.0
2018-Feb-15 17:12N 34°01' E 131°45'0 0.2
2018-Feb-15 17:00N 34°01' E 131°45'0 0.0
2018-Feb-15 16:30N 34°01' E 131°45'0 0.0
2018-Feb-15 15:54N 34°01' E 131°45'0 0.0
2018-Feb-15 15:30N 34°01' E 131°45'3 6.6
2018-Feb-15 15:00N 33°58' E 131°46'4 7.1
2018-Feb-15 14:30N 33°55' E 131°49'4 7.3
2018-Feb-15 14:00N 33°53' E 131°52'4 7.5
2018-Feb-15 13:30N 33°51' E 131°56'4 7.4
2018-Feb-15 13:00N 33°48' E 131°59'4 7.2
2018-Feb-15 12:30N 33°46' E 132°03'4 7.4
2018-Feb-15 11:55N 33°48' E 132°07'3 7.2
2018-Feb-15 11:30N 33°49' E 132°10'4 7.3
2018-Feb-15 10:59N 33°50' E 132°15'3 7.1
2018-Feb-15 10:30N 33°50' E 132°19'4 6.4
2018-Feb-15 09:55N 33°50' E 132°23'4 7.2
2018-Feb-15 09:23N 33°50' E 132°28'3 7.3
2018-Feb-15 09:00N 33°50' E 132°31'3 6.5
2018-Feb-15 08:30N 33°51' E 132°35'4 7.4
2018-Feb-15 08:00N 33°51' E 132°40'2 3.7
2018-Feb-15 07:30N 33°51' E 132°42'0 0.0
2018-Feb-15 06:43N 33°51' E 132°42'0 0.0
2018-Feb-15 06:28N 33°51' E 132°42'3 7.0
2018-Feb-15 06:00N 33°54' E 132°42'5 9.1
2018-Feb-15 05:30N 33°58' E 132°44'71 5.0
2018-Feb-14 15:11N 34°27' E 134°03'10 6.5
2018-Feb-14 13:39N 34°24' E 134°15'1 7.5
2018-Feb-14 13:30N 34°24' E 134°16'4 7.7
2018-Feb-14 13:01N 34°25' E 134°21'4 8.0
2018-Feb-14 12:30N 34°27' E 134°25'4 8.1
2018-Feb-14 12:01N 34°28' E 134°30'4 8.0
2018-Feb-14 11:31N 34°30' E 134°34'4 8.2
2018-Feb-14 11:00N 34°31' E 134°39'4 8.2
2018-Feb-14 10:31N 34°33' E 134°44'4 8.6
2018-Feb-14 10:00N 34°34' E 134°48'4 8.8
2018-Feb-14 09:30N 34°36' E 134°54'4 8.7
2018-Feb-14 09:00N 34°38' E 134°58'4 7.7
2018-Feb-14 08:30N 34°37' E 135°03'4 8.0
2018-Feb-14 08:00N 34°37' E 135°08'4 7.6
2018-Feb-14 07:30N 34°37' E 135°12'3 6.2
2018-Feb-14 07:00N 34°39' E 135°15'1 2.3
2018-Feb-14 06:30N 34°40' E 135°14'0 0.0
2018-Feb-14 06:00N 34°40' E 135°14'0 0.0
2018-Feb-14 05:27N 34°40' E 135°14'0 0.0
2018-Feb-14 05:00N 34°40' E 135°14'0 0.0
2018-Feb-14 04:30N 34°40' E 135°14'0 0.0
2018-Feb-14 04:00N 34°40' E 135°14'0 0.0
2018-Feb-14 03:30N 34°40' E 135°14'1 1.6
2018-Feb-14 03:01N 34°40' E 135°15'2 4.5
2018-Feb-14 02:30N 34°41' E 135°17'0 0.1
2018-Feb-14 01:58N 34°41' E 135°17'2 3.9
2018-Feb-14 01:30N 34°40' E 135°19'4 7.6
2018-Feb-14 01:01N 34°38' E 135°23'2 4.4
2018-Feb-14 00:30N 34°39' E 135°26'0 0.0
2018-Feb-13 23:58N 34°39' E 135°26'0 0.0
2018-Feb-13 23:30N 34°39' E 135°26'0 0.0
2018-Feb-13 23:00N 34°39' E 135°26'1 2.6
2018-Feb-13 22:30N 34°38' E 135°24'3 6.5
2018-Feb-13 22:00N 34°36' E 135°21'0 0.5
2018-Feb-13 21:28N 34°36' E 135°21'0 0.0
2018-Feb-13 20:58N 34°36' E 135°21'0 0.0
2018-Feb-13 20:28N 34°36' E 135°21'0 0.0
2018-Feb-13 19:58N 34°36' E 135°21'2 3.5
2018-Feb-13 19:30N 34°36' E 135°19'4 7.7
2018-Feb-13 19:00N 34°35' E 135°15'4 8.1
2018-Feb-13 18:30N 34°35' E 135°10'4 8.5
2018-Feb-13 18:00N 34°35' E 135°05'510.1
2018-Feb-13 17:30N 34°37' E 134°59'510.5
2018-Feb-13 17:00N 34°35' E 134°53'5 9.6
2018-Feb-13 16:30N 34°33' E 134°48'4 8.6
2018-Feb-13 16:00N 34°31' E 134°43'4 8.3
2018-Feb-13 15:30N 34°29' E 134°39'4 7.9
2018-Feb-13 15:00N 34°28' E 134°34'4 7.8
2018-Feb-13 14:30N 34°26' E 134°30'4 7.7
2018-Feb-13 14:00N 34°25' E 134°26'4 7.9
2018-Feb-13 13:30N 34°24' E 134°21'4 7.9
2018-Feb-13 13:00N 34°24' E 134°16'4 7.9
2018-Feb-13 12:29N 34°24' E 134°11'59 2.5
2018-Feb-12 13:04N 34°18' E 132°60'15 7.6
2018-Feb-12 11:03N 34°08' E 132°46'2 8.3
2018-Feb-12 10:47N 34°07' E 132°44'2 8.4
2018-Feb-12 10:30N 34°06' E 132°41'4 8.2
2018-Feb-12 10:00N 34°04' E 132°37'5 8.3
2018-Feb-12 09:26N 34°02' E 132°32'5 7.4
2018-Feb-12 08:49N 34°05' E 132°27'2 7.6
2018-Feb-12 08:30N 34°06' E 132°25'4 7.4
2018-Feb-12 08:00N 34°09' E 132°22'4 7.7
2018-Feb-12 07:30N 34°13' E 132°21'4 7.3
2018-Feb-12 07:00N 34°17' E 132°21'3 7.0
2018-Feb-12 06:30N 34°19' E 132°24'2 4.8
2018-Feb-12 06:00N 34°21' E 132°26'0 0.0
2018-Feb-12 05:29N 34°21' E 132°26'0 0.0
2018-Feb-12 04:59N 34°21' E 132°26'0 0.2
2018-Feb-12 04:30N 34°21' E 132°26'4 7.8
2018-Feb-12 04:00N 34°18' E 132°22'4 7.3
2018-Feb-12 03:30N 34°15' E 132°21'4 7.3
2018-Feb-12 03:00N 34°11' E 132°22'4 7.3
2018-Feb-12 02:30N 34°08' E 132°23'4 7.4
2018-Feb-12 01:59N 34°05' E 132°26'4 7.5
2018-Feb-12 01:25N 34°03' E 132°30'4 6.7
2018-Feb-12 00:54N 34°03' E 132°35'3 7.5
2018-Feb-12 00:30N 34°04' E 132°38'22 6.1
2018-Feb-11 20:55N 34°18' E 132°59'68 6.5
2018-Feb-11 10:20N 34°25' E 134°21'3 7.7
2018-Feb-11 10:00N 34°26' E 134°24'4 7.8
2018-Feb-11 09:30N 34°27' E 134°28'4 7.6
2018-Feb-11 09:00N 34°29' E 134°33'4 7.3
2018-Feb-11 08:31N 34°30' E 134°37'4 7.4
2018-Feb-11 08:01N 34°31' E 134°41'4 7.4
2018-Feb-11 07:30N 34°33' E 134°45'4 7.3
2018-Feb-11 07:00N 34°34' E 134°49'4 7.1
2018-Feb-11 06:31N 34°35' E 134°53'3 7.0
2018-Feb-11 06:01N 34°37' E 134°57'3 6.4
2018-Feb-11 05:31N 34°38' E 135°01'3 5.6
2018-Feb-11 05:00N 34°36' E 135°04'3 6.4
2018-Feb-11 04:31N 34°37' E 135°08'3 6.7
2018-Feb-11 04:01N 34°37' E 135°12'3 6.8
2018-Feb-11 03:30N 34°38' E 135°16'3 6.9
2018-Feb-11 03:00N 34°40' E 135°18'2 3.8
2018-Feb-11 02:30N 34°42' E 135°18'1 1.2
2018-Feb-11 01:58N 34°43' E 135°18'2 4.6
2018-Feb-11 01:30N 34°41' E 135°19'2 4.5
2018-Feb-11 01:00N 34°41' E 135°17'3 5.1
2018-Feb-11 00:30N 34°40' E 135°14'0 0.0
2018-Feb-10 23:59N 34°40' E 135°14'0 0.6
2018-Feb-10 23:28N 34°40' E 135°14'0 0.0
2018-Feb-10 22:58N 34°40' E 135°14'0 0.0
2018-Feb-10 22:28N 34°40' E 135°14'0 0.0
2018-Feb-10 21:58N 34°40' E 135°14'0 0.0
2018-Feb-10 21:28N 34°40' E 135°14'0 0.0
2018-Feb-10 20:58N 34°40' E 135°14'0 0.0
2018-Feb-10 20:31N 34°40' E 135°14'0 0.0
2018-Feb-10 20:01N 34°40' E 135°14'0 0.0
2018-Feb-10 19:28N 34°40' E 135°14'0 0.0
2018-Feb-10 18:58N 34°40' E 135°14'0 0.0
2018-Feb-10 18:28N 34°40' E 135°14'0 0.0
2018-Feb-10 18:01N 34°40' E 135°14'0 0.0
2018-Feb-10 17:28N 34°40' E 135°14'  
Track history (hours):
 
Tides and Currents Weather Stations Pressure Air Temp Water Temp Dewpoint Dewpoint Depression Visibility Wind Speed Wind Dir Waves Ship Positions

Emerald 1

Last reported at 2018-Feb-20 17:00 UTC. Time now 2018-Feb-20 17:09 UTC.
Position N 34°30' E 134°40'.

Length 118 m; draft 4.2 m.

Type: Other ship. MMSI: 431301484.

Date/timePositionNaut miles runAvg speedWind from/ knotsBaromVisibWave heightAir tempDewpointWater temp
2018-Feb-20 17:00N 34°30' E 134°40'4 7.4
2018-Feb-20 16:30N 34°28' E 134°35'4 7.4
2018-Feb-20 16:01N 34°27' E 134°31'4 7.4
2018-Feb-20 15:30N 34°26' E 134°27'4 7.2
2018-Feb-20 15:01N 34°24' E 134°23'4 7.0
2018-Feb-20 14:30N 34°24' E 134°19'3 6.6
2018-Feb-20 14:00N 34°24' E 134°15'3 6.2
2018-Feb-20 13:30N 34°25' E 134°11'3 6.0
2018-Feb-20 12:59N 34°26' E 134°08'9 5.9
2018-Feb-20 11:31N 34°26' E 133°57'0 9.2
2018-Feb-20 11:30N 34°26' E 133°57'48 2.5
2018-Feb-19 16:37N 34°18' E 132°60'16 8.1
2018-Feb-19 14:38N 34°07' E 132°46'1 8.4
2018-Feb-19 14:29N 34°07' E 132°44'4 8.6
2018-Feb-19 14:00N 34°05' E 132°40'4 8.5
2018-Feb-19 13:30N 34°03' E 132°35'4 8.2
2018-Feb-19 13:00N 34°02' E 132°30'3 6.9
2018-Feb-19 12:30N 34°03' E 132°26'4 7.3
2018-Feb-19 11:59N 34°06' E 132°24'4 7.2
2018-Feb-19 11:30N 34°09' E 132°22'4 7.5
2018-Feb-19 11:00N 34°13' E 132°21'4 7.5
2018-Feb-19 10:30N 34°17' E 132°21'4 7.1
2018-Feb-19 10:00N 34°19' E 132°24'3 5.0
2018-Feb-19 09:30N 34°21' E 132°26'0 0.0
2018-Feb-19 08:59N 34°21' E 132°26'0 0.0
2018-Feb-19 08:23N 34°21' E 132°26'0 0.0
2018-Feb-19 07:59N 34°21' E 132°26'1 1.5
2018-Feb-19 07:30N 34°20' E 132°26'0 0.0
2018-Feb-19 07:00N 34°20' E 132°26'0 0.0
2018-Feb-19 06:30N 34°20' E 132°26'0 0.1
2018-Feb-19 06:00N 34°20' E 132°26'0 0.0
2018-Feb-19 05:30N 34°20' E 132°26'1 2.1
2018-Feb-19 05:00N 34°19' E 132°25'4 7.3
2018-Feb-19 04:30N 34°16' E 132°23'3 6.6
2018-Feb-19 04:00N 34°13' E 132°21'4 7.7
2018-Feb-19 03:30N 34°10' E 132°22'4 8.0
2018-Feb-19 03:00N 34°06' E 132°24'4 8.1
2018-Feb-19 02:27N 34°02' E 132°28'4 7.5
2018-Feb-19 01:56N 34°02' E 132°32'3 7.1
2018-Feb-19 01:29N 34°04' E 132°36'3 7.0
2018-Feb-19 01:00N 34°05' E 132°40'21 6.8
2018-Feb-18 21:57N 34°18' E 132°59'54 7.2
2018-Feb-18 14:31N 34°27' E 134°04'13 8.5
2018-Feb-18 13:01N 34°25' E 134°19'1 8.7
2018-Feb-18 12:53N 34°25' E 134°20'3 8.5
2018-Feb-18 12:30N 34°26' E 134°24'4 8.3
2018-Feb-18 12:00N 34°28' E 134°28'4 8.2
2018-Feb-18 11:30N 34°29' E 134°33'4 8.2
2018-Feb-18 11:00N 34°31' E 134°38'4 8.0
2018-Feb-18 10:30N 34°32' E 134°42'4 7.7
2018-Feb-18 10:00N 34°34' E 134°47'4 7.4
2018-Feb-18 09:30N 34°35' E 134°51'4 7.3
2018-Feb-18 09:00N 34°36' E 134°55'3 6.8
2018-Feb-18 08:30N 34°38' E 134°59'3 5.4
2018-Feb-18 08:00N 34°37' E 135°02'2 4.4
2018-Feb-18 07:30N 34°36' E 135°04'4 7.0
2018-Feb-18 07:00N 34°37' E 135°09'4 7.7
2018-Feb-18 06:30N 34°37' E 135°13'3 5.2
2018-Feb-18 06:00N 34°40' E 135°15'0 0.9
2018-Feb-18 05:30N 34°40' E 135°14'0 0.0
2018-Feb-18 05:00N 34°40' E 135°14'0 0.0
2018-Feb-18 04:30N 34°40' E 135°14'0 0.0
2018-Feb-18 04:00N 34°40' E 135°14'0 0.0
2018-Feb-18 03:30N 34°40' E 135°14'0 0.0
2018-Feb-18 03:00N 34°40' E 135°14'0 0.0
2018-Feb-18 02:30N 34°40' E 135°14'0 0.0
2018-Feb-18 02:00N 34°40' E 135°14'0 0.0
2018-Feb-18 01:30N 34°40' E 135°14'0 0.0
2018-Feb-18 01:00N 34°40' E 135°14'0 0.0
2018-Feb-18 00:30N 34°40' E 135°14'0 0.0
2018-Feb-18 00:00N 34°40' E 135°14'0 0.0
2018-Feb-17 23:30N 34°40' E 135°14'0 0.0
2018-Feb-17 23:00N 34°40' E 135°14'0 0.0
2018-Feb-17 22:30N 34°40' E 135°14'0 0.0
2018-Feb-17 22:00N 34°40' E 135°14'0 0.0
2018-Feb-17 21:30N 34°40' E 135°14'0 0.0
2018-Feb-17 21:00N 34°40' E 135°14'0 0.0
2018-Feb-17 20:30N 34°40' E 135°14'0 0.0
2018-Feb-17 20:00N 34°40' E 135°14'0 0.0
2018-Feb-17 19:30N 34°40' E 135°14'0 0.1
2018-Feb-17 19:00N 34°40' E 135°14'0 0.1
2018-Feb-17 18:30N 34°40' E 135°14'0 0.0
2018-Feb-17 18:00N 34°40' E 135°14'0 0.0
2018-Feb-17 17:30N 34°40' E 135°14'0 0.4
2018-Feb-17 17:01N 34°40' E 135°14'0 0.8
2018-Feb-17 16:30N 34°40' E 135°14'1 2.0
2018-Feb-17 16:00N 34°40' E 135°15'1 2.0
2018-Feb-17 15:29N 34°41' E 135°15'0 0.0
2018-Feb-17 14:59N 34°41' E 135°15'0 0.0
2018-Feb-17 14:26N 34°41' E 135°15'0 0.0
2018-Feb-17 13:59N 34°41' E 135°15'0 0.3
2018-Feb-17 13:30N 34°41' E 135°15'3 6.6
2018-Feb-17 13:00N 34°38' E 135°14'4 7.7
2018-Feb-17 12:30N 34°36' E 135°10'4 8.5
2018-Feb-17 12:01N 34°35' E 135°05'3 6.3
2018-Feb-17 11:30N 34°37' E 135°02'2 4.7
2018-Feb-17 11:00N 34°37' E 134°59'3 7.0
2018-Feb-17 10:30N 34°35' E 134°55'4 7.3
2018-Feb-17 10:00N 34°34' E 134°51'4 7.6
2018-Feb-17 09:30N 34°32' E 134°47'4 7.6
2018-Feb-17 09:00N 34°30' E 134°43'4 7.6
2018-Feb-17 08:30N 34°29' E 134°38'4 7.6
2018-Feb-17 08:00N 34°28' E 134°34'4 7.5
2018-Feb-17 07:30N 34°27' E 134°30'4 7.5
2018-Feb-17 07:00N 34°25' E 134°26'4 7.9
2018-Feb-17 06:27N 34°24' E 134°20'5 9.2
2018-Feb-17 05:57N 34°24' E 134°15'5 9.9
2018-Feb-17 05:29N 34°25' E 134°10'70 8.0
2018-Feb-16 20:45N 34°06' E 132°48'2 7.2
2018-Feb-16 20:29N 34°05' E 132°46'4 7.5
2018-Feb-16 20:00N 34°03' E 132°42'4 7.6
2018-Feb-16 19:30N 34°01' E 132°38'4 7.2
2018-Feb-16 19:00N 33°59' E 132°35'3 5.2
2018-Feb-16 18:23N 33°57' E 132°32'2 5.8
2018-Feb-16 18:00N 33°56' E 132°30'3 6.3
2018-Feb-16 17:30N 33°53' E 132°28'4 6.5
2018-Feb-16 16:49N 33°51' E 132°23'2 5.8
2018-Feb-16 16:29N 33°50' E 132°21'6 7.4
2018-Feb-16 15:40N 33°50' E 132°14'1 7.5
2018-Feb-16 15:30N 33°50' E 132°12'4 7.2
2018-Feb-16 15:00N 33°48' E 132°09'4 7.6
2018-Feb-16 14:29N 33°46' E 132°04'4 7.5
2018-Feb-16 13:55N 33°48' E 131°60'3 8.2
2018-Feb-16 13:30N 33°50' E 131°56'6 8.1
2018-Feb-16 12:47N 33°54' E 131°51'5 7.9
2018-Feb-16 12:13N 33°57' E 131°47'2 7.7
2018-Feb-16 11:58N 33°58' E 131°45'3 6.7
2018-Feb-16 11:30N 34°01' E 131°46'1 2.8
2018-Feb-16 11:00N 34°02' E 131°47'0 0.0
2018-Feb-16 10:29N 34°02' E 131°47'0 0.0
2018-Feb-16 09:59N 34°02' E 131°47'1 2.8
2018-Feb-16 09:30N 34°02' E 131°46'1 1.9
2018-Feb-16 09:00N 34°01' E 131°45'0 0.0
2018-Feb-16 08:30N 34°01' E 131°45'0 0.0
2018-Feb-16 08:00N 34°01' E 131°45'0 0.0
2018-Feb-16 07:30N 34°01' E 131°45'0 0.0
2018-Feb-16 06:48N 34°01' E 131°45'0 0.0
2018-Feb-16 06:24N 34°01' E 131°45'0 0.0
2018-Feb-16 06:00N 34°01' E 131°45'0 0.1
2018-Feb-16 04:48N 34°01' E 131°45'0 0.1
2018-Feb-16 04:24N 34°01' E 131°45'0 0.1
2018-Feb-16 03:54N 34°01' E 131°45'0 0.0
2018-Feb-16 03:30N 34°01' E 131°45'0 0.0
2018-Feb-16 02:54N 34°01' E 131°45'0 0.0
2018-Feb-16 02:30N 34°01' E 131°45'0 0.0
2018-Feb-16 02:00N 34°01' E 131°45'0 0.0
2018-Feb-16 01:30N 34°01' E 131°45'0 0.0
2018-Feb-16 01:00N 34°01' E 131°45'0 0.0
2018-Feb-16 00:24N 34°01' E 131°45'0 0.0
2018-Feb-16 00:00N 34°01' E 131°45'0 0.0
2018-Feb-15 22:54N 34°01' E 131°45'0 0.0
2018-Feb-15 22:30N 34°01' E 131°45'0 0.0
2018-Feb-15 22:00N 34°01' E 131°45'0 0.1
2018-Feb-15 21:06N 34°01' E 131°45'0 0.1
2018-Feb-15 20:39N 34°01' E 131°45'0 0.0
2018-Feb-15 20:24N 34°01' E 131°45'0 0.0
2018-Feb-15 20:00N 34°01' E 131°45'0 0.1
2018-Feb-15 19:27N 34°01' E 131°45'0 0.0
2018-Feb-15 19:00N 34°01' E 131°45'0 0.0
2018-Feb-15 18:24N 34°01' E 131°45'0 0.0
2018-Feb-15 17:54N 34°01' E 131°45'0 0.0
2018-Feb-15 17:12N 34°01' E 131°45'0 0.2
2018-Feb-15 17:00N 34°01' E 131°45'0 0.0
2018-Feb-15 16:30N 34°01' E 131°45'0 0.0
2018-Feb-15 15:54N 34°01' E 131°45'0 0.0
2018-Feb-15 15:30N 34°01' E 131°45'3 6.6
2018-Feb-15 15:00N 33°58' E 131°46'4 7.1
2018-Feb-15 14:30N 33°55' E 131°49'4 7.3
2018-Feb-15 14:00N 33°53' E 131°52'4 7.5
2018-Feb-15 13:30N 33°51' E 131°56'4 7.4
2018-Feb-15 13:00N 33°48' E 131°59'4 7.2
2018-Feb-15 12:30N 33°46' E 132°03'4 7.4
2018-Feb-15 11:55N 33°48' E 132°07'3 7.2
2018-Feb-15 11:30N 33°49' E 132°10'4 7.3
2018-Feb-15 10:59N 33°50' E 132°15'3 7.1
2018-Feb-15 10:30N 33°50' E 132°19'4 6.4
2018-Feb-15 09:55N 33°50' E 132°23'4 7.2
2018-Feb-15 09:23N 33°50' E 132°28'3 7.3
2018-Feb-15 09:00N 33°50' E 132°31'3 6.5
2018-Feb-15 08:30N 33°51' E 132°35'4 7.4
2018-Feb-15 08:00N 33°51' E 132°40'2 3.7
2018-Feb-15 07:30N 33°51' E 132°42'0 0.0
2018-Feb-15 06:43N 33°51' E 132°42'0 0.0
2018-Feb-15 06:28N 33°51' E 132°42'3 7.0
2018-Feb-15 06:00N 33°54' E 132°42'5 9.1
2018-Feb-15 05:30N 33°58' E 132°44'71 5.0
2018-Feb-14 15:11N 34°27' E 134°03'10 6.5
2018-Feb-14 13:39N 34°24' E 134°15'1 7.5
2018-Feb-14 13:30N 34°24' E 134°16'4 7.7
2018-Feb-14 13:01N 34°25' E 134°21'4 8.0
2018-Feb-14 12:30N 34°27' E 134°25'4 8.1
2018-Feb-14 12:01N 34°28' E 134°30'4 8.0
2018-Feb-14 11:31N 34°30' E 134°34'4 8.2
2018-Feb-14 11:00N 34°31' E 134°39'4 8.2
2018-Feb-14 10:31N 34°33' E 134°44'4 8.6
2018-Feb-14 10:00N 34°34' E 134°48'4 8.8
2018-Feb-14 09:30N 34°36' E 134°54'4 8.7
2018-Feb-14 09:00N 34°38' E 134°58'4 7.7
2018-Feb-14 08:30N 34°37' E 135°03'4 8.0
2018-Feb-14 08:00N 34°37' E 135°08'4 7.6
2018-Feb-14 07:30N 34°37' E 135°12'3 6.2
2018-Feb-14 07:00N 34°39' E 135°15'1 2.3
2018-Feb-14 06:30N 34°40' E 135°14'0 0.0
2018-Feb-14 06:00N 34°40' E 135°14'0 0.0
2018-Feb-14 05:27N 34°40' E 135°14'0 0.0
2018-Feb-14 05:00N 34°40' E 135°14'0 0.0
2018-Feb-14 04:30N 34°40' E 135°14'0 0.0
2018-Feb-14 04:00N 34°40' E 135°14'0 0.0
2018-Feb-14 03:30N 34°40' E 135°14'1 1.6
2018-Feb-14 03:01N 34°40' E 135°15'2 4.5
2018-Feb-14 02:30N 34°41' E 135°17'0 0.1
2018-Feb-14 01:58N 34°41' E 135°17'2 3.9
2018-Feb-14 01:30N 34°40' E 135°19'4 7.6
2018-Feb-14 01:01N 34°38' E 135°23'2 4.4
2018-Feb-14 00:30N 34°39' E 135°26'0 0.0
2018-Feb-13 23:58N 34°39' E 135°26'0 0.0
2018-Feb-13 23:30N 34°39' E 135°26'0 0.0
2018-Feb-13 23:00N 34°39' E 135°26'1 2.6
2018-Feb-13 22:30N 34°38' E 135°24'3 6.5
2018-Feb-13 22:00N 34°36' E 135°21'0 0.5
2018-Feb-13 21:28N 34°36' E 135°21'0 0.0
2018-Feb-13 20:58N 34°36' E 135°21'0 0.0
2018-Feb-13 20:28N 34°36' E 135°21'0 0.0
2018-Feb-13 19:58N 34°36' E 135°21'2 3.5
2018-Feb-13 19:30N 34°36' E 135°19'4 7.7
2018-Feb-13 19:00N 34°35' E 135°15'4 8.1
2018-Feb-13 18:30N 34°35' E 135°10'4 8.5
2018-Feb-13 18:00N 34°35' E 135°05'510.1
2018-Feb-13 17:30N 34°37' E 134°59'510.5
2018-Feb-13 17:00N 34°35' E 134°53'5 9.6
2018-Feb-13 16:30N 34°33' E 134°48'4 8.6
2018-Feb-13 16:00N 34°31' E 134°43'4 8.3
2018-Feb-13 15:30N 34°29' E 134°39'4 7.9
2018-Feb-13 15:00N 34°28' E 134°34'4 7.8
2018-Feb-13 14:30N 34°26' E 134°30'4 7.7
2018-Feb-13 14:00N 34°25' E 134°26'4 7.9
2018-Feb-13 13:30N 34°24' E 134°21'4 7.9
2018-Feb-13 13:00N 34°24' E 134°16'4 7.9
2018-Feb-13 12:29N 34°24' E 134°11'59 2.5
2018-Feb-12 13:04N 34°18' E 132°60'15 7.6
2018-Feb-12 11:03N 34°08' E 132°46'2 8.3
2018-Feb-12 10:47N 34°07' E 132°44'2 8.4
2018-Feb-12 10:30N 34°06' E 132°41'4 8.2
2018-Feb-12 10:00N 34°04' E 132°37'5 8.3
2018-Feb-12 09:26N 34°02' E 132°32'5 7.4
2018-Feb-12 08:49N 34°05' E 132°27'2 7.6
2018-Feb-12 08:30N 34°06' E 132°25'4 7.4
2018-Feb-12 08:00N 34°09' E 132°22'4 7.7
2018-Feb-12 07:30N 34°13' E 132°21'4 7.3
2018-Feb-12 07:00N 34°17' E 132°21'3 7.0
2018-Feb-12 06:30N 34°19' E 132°24'2 4.8
2018-Feb-12 06:00N 34°21' E 132°26'0 0.0
2018-Feb-12 05:29N 34°21' E 132°26'0 0.0
2018-Feb-12 04:59N 34°21' E 132°26'0 0.2
2018-Feb-12 04:30N 34°21' E 132°26'4 7.8
2018-Feb-12 04:00N 34°18' E 132°22'4 7.3
2018-Feb-12 03:30N 34°15' E 132°21'4 7.3
2018-Feb-12 03:00N 34°11' E 132°22'4 7.3
2018-Feb-12 02:30N 34°08' E 132°23'4 7.4
2018-Feb-12 01:59N 34°05' E 132°26'4 7.5
2018-Feb-12 01:25N 34°03' E 132°30'4 6.7
2018-Feb-12 00:54N 34°03' E 132°35'3 7.5
2018-Feb-12 00:30N 34°04' E 132°38'22 6.1
2018-Feb-11 20:55N 34°18' E 132°59'68 6.5
2018-Feb-11 10:20N 34°25' E 134°21'3 7.7
2018-Feb-11 10:00N 34°26' E 134°24'4 7.8
2018-Feb-11 09:30N 34°27' E 134°28'4 7.6
2018-Feb-11 09:00N 34°29' E 134°33'4 7.3
2018-Feb-11 08:31N 34°30' E 134°37'4 7.4
2018-Feb-11 08:01N 34°31' E 134°41'4 7.4
2018-Feb-11 07:30N 34°33' E 134°45'4 7.3
2018-Feb-11 07:00N 34°34' E 134°49'4 7.1
2018-Feb-11 06:31N 34°35' E 134°53'3 7.0
2018-Feb-11 06:01N 34°37' E 134°57'3 6.4
2018-Feb-11 05:31N 34°38' E 135°01'3 5.6
2018-Feb-11 05:00N 34°36' E 135°04'3 6.4
2018-Feb-11 04:31N 34°37' E 135°08'3 6.7
2018-Feb-11 04:01N 34°37' E 135°12'3 6.8
2018-Feb-11 03:30N 34°38' E 135°16'3 6.9
2018-Feb-11 03:00N 34°40' E 135°18'2 3.8
2018-Feb-11 02:30N 34°42' E 135°18'1 1.2
2018-Feb-11 01:58N 34°43' E 135°18'2 4.6
2018-Feb-11 01:30N 34°41' E 135°19'2 4.5
2018-Feb-11 01:00N 34°41' E 135°17'3 5.1
2018-Feb-11 00:30N 34°40' E 135°14'0 0.0
2018-Feb-10 23:59N 34°40' E 135°14'0 0.6
2018-Feb-10 23:28N 34°40' E 135°14'0 0.0
2018-Feb-10 22:58N 34°40' E 135°14'0 0.0
2018-Feb-10 22:28N 34°40' E 135°14'0 0.0
2018-Feb-10 21:58N 34°40' E 135°14'0 0.0
2018-Feb-10 21:28N 34°40' E 135°14'0 0.0
2018-Feb-10 20:58N 34°40' E 135°14'0 0.0
2018-Feb-10 20:31N 34°40' E 135°14'0 0.0
2018-Feb-10 20:01N 34°40' E 135°14'0 0.0
2018-Feb-10 19:28N 34°40' E 135°14'0 0.0
2018-Feb-10 18:58N 34°40' E 135°14'0 0.0
2018-Feb-10 18:28N 34°40' E 135°14'0 0.0
2018-Feb-10 18:01N 34°40' E 135°14'0 0.0
2018-Feb-10 17:28N 34°40' E 135°14'  

Dump ship's entire track history